Brighton, Tennessee
Current Conditions -  °F | °C
As of 4:15 AM on Thursday 23 Oct 2014 (Local Time) from KNQA Reporting Station
Clear Clear  
Wind Chill: 41°   Ceiling: Unl
Heat Index: 45°   Visibility: 10mi
Dew Point: 45°   Wind: 6mph
Humidity: 100%   Direction: 50°NE
Pressure: 30.18"   Gusts: NA
Location:  35.48°N, 89.73°W
Report Text: KNQA 230915Z AUTO 05005KT 10SM CLR 07/07 A3018 RMK
Loading
Personal Weather Stations






























Interactive Weather Map
Tropical Storm Tracking
New forecast layout! Learn more

10-Day Weather Forecast

Advertisements
Track Severe Weather on mobile